Terminal Aerodrome Forecast
Issued by NWS Bismarck, ND

Home | Current Version | Previous Version | Graphics & Text | Print | Product List | Glossary On
Versions: 1 2 3 4 5 6 7 8 9 10 11 12 13 14 15 16 17 18 19 20 21 22 23 24 25
000
FTUS43 KBIS 241100
TAFISN
TAF
KISN 241135Z 2412/2512 08013KT 5SM -RA VCTS FEW025CB BKN035
     FM241400 34015G30KT P6SM BKN050
     FM241600 13010KT P6SM SCT050
     FM242300 15010KT P6SM BKN100=

USA.gov is the U.S. government's official web portal to all federal, state and local government web resources and services.